createdAt,value
2018-12-01T00:03:55.856Z,20.10
2018-12-01T00:08:32.258Z,27.10
2018-12-01T00:13:08.621Z,20.40
2018-12-01T00:17:45.017Z,22.07
2018-12-01T00:22:21.392Z,20.57
2018-12-01T00:26:57.769Z,20.43
2018-12-01T00:31:34.137Z,20.90
2018-12-01T00:36:10.524Z,22.77
2018-12-01T00:40:46.894Z,19.57
2018-12-01T00:45:24.305Z,21.00
2018-12-01T00:50:00.683Z,20.37
2018-12-01T00:54:37.060Z,20.10
2018-12-01T00:59:13.427Z,21.50
2018-12-01T01:03:49.823Z,21.00
2018-12-01T01:08:26.181Z,25.43
2018-12-01T01:13:02.570Z,24.13
2018-12-01T01:17:38.964Z,22.90
2018-12-01T01:22:15.346Z,25.10
2018-12-01T01:26:51.739Z,20.00
2018-12-01T01:31:28.146Z,23.67
2018-12-01T01:36:04.509Z,25.13
2018-12-01T01:40:40.925Z,22.98
2018-12-01T01:45:21.005Z,23.73
2018-12-01T01:49:57.402Z,25.83
2018-12-01T01:54:33.766Z,24.00
2018-12-01T01:59:10.151Z,27.62
2018-12-01T02:03:46.650Z,24.82
2018-12-01T02:08:23.033Z,26.85
2018-12-01T02:12:59.410Z,20.92
2018-12-01T02:17:35.913Z,27.73
2018-12-01T02:22:12.289Z,29.63
2018-12-01T02:26:48.677Z,24.07
2018-12-01T02:31:25.041Z,26.13
2018-12-01T02:36:01.434Z,25.70
2018-12-01T02:40:37.808Z,23.50
2018-12-01T02:45:49.869Z,24.97
2018-12-01T02:50:29.935Z,24.83
2018-12-01T02:55:06.758Z,30.07
2018-12-01T02:59:43.127Z,30.77
2018-12-01T03:04:19.513Z,24.77
2018-12-01T03:08:55.882Z,31.30
2018-12-01T03:13:32.267Z,26.37
2018-12-01T03:18:13.498Z,27.13
2018-12-01T03:22:46.657Z,24.90
2018-12-01T03:27:23.819Z,29.03
2018-12-01T03:32:00.210Z,27.00
2018-12-01T03:36:36.666Z,28.83
2018-12-01T03:41:13.050Z,32.13
2018-12-01T03:45:49.413Z,30.05
2018-12-01T03:50:26.466Z,25.77
2018-12-01T03:55:02.833Z,28.10
2018-12-01T03:59:39.221Z,29.25
2018-12-01T04:04:15.585Z,28.23
2018-12-01T04:08:51.969Z,27.47
2018-12-01T04:13:28.336Z,26.37
2018-12-01T04:18:04.734Z,28.87
2018-12-01T04:22:41.140Z,28.27
2018-12-01T04:27:17.526Z,26.67
2018-12-01T04:31:53.893Z,27.27
2018-12-01T04:36:30.278Z,33.03
2018-12-01T04:41:06.966Z,31.37
2018-12-01T04:45:43.661Z,29.27
2018-12-01T04:50:20.525Z,29.87
2018-12-01T04:54:56.938Z,29.77
2018-12-01T04:59:33.294Z,29.80
2018-12-01T05:04:09.677Z,28.90
2018-12-01T05:08:46.051Z,32.17
2018-12-01T05:13:22.437Z,36.87
2018-12-01T05:17:58.802Z,37.88
2018-12-01T05:22:35.201Z,34.50
2018-12-01T05:27:11.593Z,38.30
2018-12-01T05:31:48.003Z,35.75
2018-12-01T05:36:24.458Z,43.75
2018-12-01T05:41:00.837Z,36.23
2018-12-01T05:45:37.209Z,31.20
2018-12-01T05:50:15.585Z,32.07
2018-12-01T05:54:51.948Z,31.13
2018-12-01T05:59:28.339Z,30.37
2018-12-01T06:04:04.705Z,27.33
2018-12-01T06:08:41.098Z,30.10
2018-12-01T06:13:17.462Z,31.23
2018-12-01T06:17:53.856Z,31.60
2018-12-01T06:22:30.226Z,31.43
2018-12-01T06:27:06.625Z,29.77
2018-12-01T06:31:43.043Z,29.83
2018-12-01T06:36:19.447Z,33.93
2018-12-01T06:40:55.815Z,27.20
2018-12-01T06:45:32.204Z,26.23
2018-12-01T06:50:21.121Z,29.87
2018-12-01T06:54:57.505Z,26.93
2018-12-01T06:59:33.884Z,27.50
2018-12-01T07:04:10.350Z,26.07
2018-12-01T07:08:46.714Z,27.40
2018-12-01T07:13:23.110Z,27.73
2018-12-01T07:17:59.478Z,28.20
2018-12-01T07:22:35.878Z,25.83
2018-12-01T07:27:15.011Z,20.13
2018-12-01T07:31:51.406Z,25.27
2018-12-01T07:36:27.782Z,21.00
2018-12-01T07:41:05.248Z,22.70
2018-12-01T07:45:41.606Z,19.90
2018-12-01T07:50:19.234Z,20.73
2018-12-01T07:54:55.637Z,23.20
2018-12-01T07:59:32.035Z,27.90
2018-12-01T08:04:08.705Z,25.40
2018-12-01T08:08:45.114Z,27.40
2018-12-01T08:13:21.538Z,23.73
2018-12-01T08:17:57.933Z,20.83
2018-12-01T08:22:34.385Z,24.87
2018-12-01T08:27:10.774Z,24.23
2018-12-01T08:31:47.241Z,25.08
2018-12-01T08:36:23.631Z,22.63
2018-12-01T08:40:59.994Z,23.30
2018-12-01T08:45:36.391Z,24.23
2018-12-01T08:50:17.545Z,28.77
2018-12-01T08:54:53.936Z,23.40
2018-12-01T08:59:30.290Z,24.05
2018-12-01T09:04:06.689Z,22.60
2018-12-01T09:08:43.058Z,24.67
2018-12-01T09:13:19.458Z,30.27
2018-12-01T09:17:55.822Z,27.07
2018-12-01T09:22:32.206Z,26.33
2018-12-01T09:27:08.658Z,24.67
2018-12-01T09:31:45.090Z,29.20
2018-12-01T09:36:21.483Z,26.48
2018-12-01T09:40:58.094Z,22.52
2018-12-01T09:45:34.466Z,26.35
2018-12-01T09:50:12.530Z,30.72
2018-12-01T09:54:48.933Z,23.83
2018-12-01T09:59:25.335Z,25.65
2018-12-01T10:04:01.713Z,25.45
2018-12-01T10:08:38.184Z,19.85
2018-12-01T10:13:14.549Z,28.17
2018-12-01T10:17:50.934Z,24.95
2018-12-01T10:22:27.314Z,39.30
2018-12-01T10:27:03.706Z,42.93
2018-12-01T10:31:40.075Z,37.80
2018-12-01T10:36:16.475Z,32.20
2018-12-01T10:40:52.841Z,23.40
2018-12-01T10:45:29.226Z,19.33
2018-12-01T10:50:07.272Z,21.17
2018-12-01T10:54:43.677Z,19.40
2018-12-01T10:59:20.045Z,27.65
2018-12-01T11:03:56.429Z,30.35
2018-12-01T11:08:32.801Z,31.10
2018-12-01T11:13:09.185Z,35.05
2018-12-01T11:17:45.550Z,29.18
2018-12-01T11:22:21.939Z,35.63
2018-12-01T11:26:58.314Z,30.53
2018-12-01T11:31:34.718Z,32.83
2018-12-01T11:36:11.442Z,33.78
2018-12-01T11:40:47.925Z,28.62
2018-12-01T11:45:24.294Z,30.07
2018-12-01T11:50:00.686Z,27.73
2018-12-01T11:54:37.058Z,27.37
2018-12-01T11:59:13.454Z,28.67
2018-12-01T12:03:49.825Z,29.30
2018-12-01T12:08:27.995Z,28.47
2018-12-01T12:13:04.361Z,28.40
2018-12-01T12:17:41.686Z,26.17
2018-12-01T12:22:18.053Z,21.70
2018-12-01T12:26:54.433Z,20.63
2018-12-01T12:31:31.145Z,24.13
2018-12-01T12:36:07.906Z,22.15
2018-12-01T12:40:44.304Z,21.37
2018-12-01T12:45:20.702Z,23.32
2018-12-01T12:49:57.079Z,22.95
2018-12-01T12:54:33.549Z,23.92
2018-12-01T12:59:09.931Z,21.95
2018-12-01T13:03:46.579Z,22.20
2018-12-01T13:08:22.977Z,24.47
2018-12-01T13:12:59.418Z,18.40
2018-12-01T13:17:35.793Z,21.73
2018-12-01T13:22:12.206Z,22.93
2018-12-01T13:26:48.579Z,19.23
2018-12-01T13:31:25.270Z,15.63
2018-12-01T13:36:01.701Z,17.90
2018-12-01T13:40:38.662Z,19.52
2018-12-01T13:45:16.329Z,18.10
2018-12-01T13:49:52.721Z,15.35
2018-12-01T13:54:29.169Z,18.62
2018-12-01T13:59:06.500Z,19.10
2018-12-01T14:03:42.838Z,18.00
2018-12-01T14:08:19.244Z,15.75
2018-12-01T14:13:15.195Z,15.05
2018-12-01T14:17:51.619Z,12.80
2018-12-01T14:22:27.982Z,17.20
2018-12-01T14:27:04.402Z,16.55
2018-12-01T14:31:40.778Z,16.17
2018-12-01T14:36:17.169Z,15.83
2018-12-01T14:40:53.579Z,18.83
2018-12-01T14:45:30.015Z,18.50
2018-12-01T14:50:09.095Z,16.57
2018-12-01T14:54:45.481Z,14.45
2018-12-01T14:59:21.832Z,16.15
2018-12-01T15:03:58.219Z,13.22
2018-12-01T15:08:34.642Z,18.62
2018-12-01T15:13:11.046Z,16.02
2018-12-01T15:17:47.414Z,16.17
2018-12-01T15:22:23.811Z,16.93
2018-12-01T15:27:00.186Z,22.17
2018-12-01T15:31:36.577Z,18.60
2018-12-01T15:36:12.958Z,17.95
2018-12-01T15:40:53.393Z,16.40
2018-12-01T15:45:29.763Z,15.72
2018-12-01T15:50:09.118Z,16.93
2018-12-01T15:54:45.489Z,22.65
2018-12-01T15:59:21.874Z,14.63
2018-12-01T16:03:58.234Z,16.62
2018-12-01T16:08:35.574Z,14.68
2018-12-01T16:13:20.114Z,11.88
2018-12-01T16:17:56.513Z,26.33
2018-12-01T16:22:32.877Z,46.57
2018-12-01T16:27:09.274Z,18.67
2018-12-01T16:31:45.675Z,12.73
2018-12-01T16:36:22.120Z,12.47
2018-12-01T16:41:07.807Z,10.93
2018-12-01T16:45:45.626Z,10.85
2018-12-01T16:50:21.981Z,12.70
2018-12-01T16:54:58.377Z,14.60
2018-12-01T16:59:34.753Z,21.03
2018-12-01T17:04:11.134Z,14.27
2018-12-01T17:08:47.914Z,13.43
2018-12-01T17:13:24.293Z,13.50
2018-12-01T17:18:00.677Z,12.60
2018-12-01T17:22:37.106Z,22.90
2018-12-01T17:27:13.482Z,18.47
2018-12-01T17:31:49.959Z,12.53
2018-12-01T17:36:26.362Z,18.53
2018-12-01T17:41:29.303Z,11.70
2018-12-01T17:46:06.178Z,15.47
2018-12-01T17:50:42.570Z,22.57
2018-12-01T17:55:19.275Z,18.80
2018-12-01T17:59:55.682Z,17.12
2018-12-01T18:04:32.049Z,12.53
2018-12-01T18:09:10.245Z,14.13
2018-12-01T18:13:46.610Z,13.63
2018-12-01T18:18:22.999Z,22.58
2018-12-01T18:23:00.897Z,25.52
2018-12-01T18:27:37.808Z,9.90
2018-12-01T18:32:14.165Z,10.47
2018-12-01T18:36:50.621Z,8.40
2018-12-01T18:41:27.000Z,9.00
2018-12-01T18:46:05.413Z,7.97
2018-12-01T18:50:41.766Z,9.23
2018-12-01T18:55:18.189Z,10.67
2018-12-01T18:59:54.569Z,18.73
2018-12-01T19:04:30.960Z,14.13
2018-12-01T19:09:09.085Z,8.43
2018-12-01T19:13:45.474Z,7.97
2018-12-01T19:18:21.842Z,12.33
2018-12-01T19:22:59.025Z,10.73
2018-12-01T19:27:35.403Z,7.50
2018-12-01T19:32:11.781Z,6.97
2018-12-01T19:36:48.142Z,6.23
2018-12-01T19:41:24.567Z,20.43
2018-12-01T19:46:00.926Z,15.57
2018-12-01T19:50:41.633Z,7.72
2018-12-01T19:55:18.815Z,7.57
2018-12-01T19:59:55.192Z,7.27
2018-12-01T20:04:31.552Z,5.47
2018-12-01T20:09:09.430Z,13.37
2018-12-01T20:13:46.681Z,10.67
2018-12-01T20:18:24.795Z,10.07
2018-12-01T20:23:01.162Z,6.13
2018-12-01T20:27:37.546Z,8.33
2018-12-01T20:32:13.922Z,5.72
2018-12-01T20:36:53.653Z,7.97
2018-12-01T20:41:30.042Z,5.47
2018-12-01T20:46:06.550Z,3.77
2018-12-01T20:50:43.282Z,2.42
2018-12-01T20:55:22.217Z,3.50
2018-12-01T20:59:58.914Z,4.25
2018-12-01T21:04:35.405Z,2.62
2018-12-01T21:09:12.176Z,3.83
2018-12-01T21:13:48.573Z,2.67
2018-12-01T21:18:24.948Z,2.27
2018-12-01T21:23:01.348Z,3.50
2018-12-01T21:27:37.782Z,2.57
2018-12-01T21:32:14.157Z,2.92
2018-12-01T21:36:50.525Z,2.77
2018-12-01T21:41:27.590Z,3.37
2018-12-01T21:46:04.658Z,1.43
2018-12-01T21:50:42.451Z,2.33
2018-12-01T21:55:18.921Z,2.20
2018-12-01T21:59:55.415Z,3.27
2018-12-01T22:04:31.841Z,1.53
2018-12-01T22:09:09.841Z,3.35
2018-12-01T22:13:46.505Z,2.05
2018-12-01T22:18:23.909Z,1.98
2018-12-01T22:23:00.282Z,2.40
2018-12-01T22:27:36.679Z,2.80
2018-12-01T22:32:13.033Z,4.53
2018-12-01T22:36:49.476Z,1.65
2018-12-01T22:41:25.965Z,1.77
2018-12-01T22:46:03.793Z,2.12
2018-12-01T22:50:41.842Z,2.23
2018-12-01T22:55:20.520Z,2.30
2018-12-01T22:59:56.934Z,1.65
2018-12-01T23:04:33.314Z,2.22
2018-12-01T23:09:09.675Z,2.90
2018-12-01T23:13:46.058Z,2.27
2018-12-01T23:18:24.182Z,1.52
2018-12-01T23:23:00.557Z,2.37
2018-12-01T23:27:37.969Z,1.92
2018-12-01T23:32:15.129Z,1.82
2018-12-01T23:36:51.610Z,1.90
2018-12-01T23:41:28.285Z,1.57
2018-12-01T23:46:05.310Z,1.72
2018-12-01T23:50:43.782Z,1.62
2018-12-01T23:55:20.146Z,1.25
2018-12-01T23:59:56.535Z,0.62
